sensor_id;sensor_type;location;lat;lon;timestamp;P1;durP1;ratioP1;P2;durP2;ratioP2
54679;SDS011;40578;53.178;5.846;2022-11-20T00:01:17;23.40;;;13.75;;
54679;SDS011;40578;53.178;5.846;2022-11-20T00:03:45;25.10;;;14.63;;
54679;SDS011;40578;53.178;5.846;2022-11-20T00:06:12;23.23;;;14.05;;
54679;SDS011;40578;53.178;5.846;2022-11-20T00:08:39;22.33;;;13.73;;
54679;SDS011;40578;53.178;5.846;2022-11-20T00:11:06;23.73;;;13.43;;
54679;SDS011;40578;53.178;5.846;2022-11-20T00:13:34;22.23;;;13.57;;
54679;SDS011;40578;53.178;5.846;2022-11-20T00:16:00;22.80;;;13.60;;
54679;SDS011;40578;53.178;5.846;2022-11-20T00:18:28;20.13;;;13.40;;
54679;SDS011;40578;53.178;5.846;2022-11-20T00:20:59;24.92;;;14.02;;
54679;SDS011;40578;53.178;5.846;2022-11-20T00:23:28;22.67;;;13.57;;
54679;SDS011;40578;53.178;5.846;2022-11-20T00:25:54;24.10;;;13.93;;
54679;SDS011;40578;53.178;5.846;2022-11-20T00:28:20;24.03;;;13.50;;
54679;SDS011;40578;53.178;5.846;2022-11-20T00:30:45;22.20;;;13.27;;
54679;SDS011;40578;53.178;5.846;2022-11-20T00:33:11;22.07;;;12.77;;
54679;SDS011;40578;53.178;5.846;2022-11-20T00:35:36;21.20;;;13.27;;
54679;SDS011;40578;53.178;5.846;2022-11-20T00:38:02;23.13;;;13.20;;
54679;SDS011;40578;53.178;5.846;2022-11-20T00:40:27;21.07;;;12.37;;
54679;SDS011;40578;53.178;5.846;2022-11-20T00:42:53;26.80;;;14.20;;
54679;SDS011;40578;53.178;5.846;2022-11-20T00:45:19;21.67;;;13.27;;
54679;SDS011;40578;53.178;5.846;2022-11-20T00:47:44;21.10;;;12.70;;
54679;SDS011;40578;53.178;5.846;2022-11-20T00:50:10;23.10;;;13.57;;
54679;SDS011;40578;53.178;5.846;2022-11-20T00:52:35;25.73;;;14.20;;
54679;SDS011;40578;53.178;5.846;2022-11-20T00:55:01;24.57;;;14.27;;
54679;SDS011;40578;53.178;5.846;2022-11-20T00:57:27;22.97;;;13.73;;
54679;SDS011;40578;53.178;5.846;2022-11-20T00:59:52;21.23;;;12.93;;
54679;SDS011;40578;53.178;5.846;2022-11-20T01:02:18;20.93;;;12.70;;
54679;SDS011;40578;53.178;5.846;2022-11-20T01:04:43;22.40;;;13.37;;
54679;SDS011;40578;53.178;5.846;2022-11-20T01:07:09;22.52;;;12.85;;
54679;SDS011;40578;53.178;5.846;2022-11-20T01:09:35;22.90;;;12.50;;
54679;SDS011;40578;53.178;5.846;2022-11-20T01:12:00;22.10;;;12.73;;
54679;SDS011;40578;53.178;5.846;2022-11-20T01:14:26;24.67;;;13.63;;
54679;SDS011;40578;53.178;5.846;2022-11-20T01:16:51;21.33;;;13.17;;
54679;SDS011;40578;53.178;5.846;2022-11-20T01:19:18;20.50;;;13.20;;
54679;SDS011;40578;53.178;5.846;2022-11-20T01:21:47;22.07;;;13.23;;
54679;SDS011;40578;53.178;5.846;2022-11-20T01:24:15;22.93;;;13.50;;
54679;SDS011;40578;53.178;5.846;2022-11-20T01:26:43;20.43;;;12.67;;
54679;SDS011;40578;53.178;5.846;2022-11-20T01:29:14;22.20;;;13.63;;
54679;SDS011;40578;53.178;5.846;2022-11-20T01:31:42;21.67;;;13.27;;
54679;SDS011;40578;53.178;5.846;2022-11-20T01:34:15;21.58;;;13.30;;
54679;SDS011;40578;53.178;5.846;2022-11-20T01:36:42;25.03;;;14.03;;
54679;SDS011;40578;53.178;5.846;2022-11-20T01:41:39;22.20;;;14.07;;
54679;SDS011;40578;53.178;5.846;2022-11-20T01:44:43;21.87;;;13.30;;
54679;SDS011;40578;53.178;5.846;2022-11-20T01:47:38;24.53;;;14.70;;
54679;SDS011;40578;53.178;5.846;2022-11-20T01:52:40;23.50;;;14.37;;
54679;SDS011;40578;53.178;5.846;2022-11-20T01:55:15;24.43;;;14.57;;
54679;SDS011;40578;53.178;5.846;2022-11-20T01:57:44;24.70;;;14.20;;
54679;SDS011;40578;53.178;5.846;2022-11-20T02:00:12;22.00;;;13.63;;
54679;SDS011;40578;53.178;5.846;2022-11-20T02:02:44;24.67;;;13.90;;
54679;SDS011;40578;53.178;5.846;2022-11-20T02:05:18;24.27;;;14.50;;
54679;SDS011;40578;53.178;5.846;2022-11-20T02:07:48;25.20;;;14.57;;
54679;SDS011;40578;53.178;5.846;2022-11-20T02:10:15;23.27;;;13.90;;
54679;SDS011;40578;53.178;5.846;2022-11-20T02:12:41;22.05;;;13.73;;
54679;SDS011;40578;53.178;5.846;2022-11-20T02:15:25;23.50;;;14.07;;
54679;SDS011;40578;53.178;5.846;2022-11-20T02:17:51;22.57;;;13.97;;
54679;SDS011;40578;53.178;5.846;2022-11-20T02:20:16;40.17;;;16.20;;
54679;SDS011;40578;53.178;5.846;2022-11-20T02:22:50;27.10;;;14.77;;
54679;SDS011;40578;53.178;5.846;2022-11-20T02:25:29;22.75;;;14.18;;
54679;SDS011;40578;53.178;5.846;2022-11-20T02:27:57;23.80;;;14.40;;
54679;SDS011;40578;53.178;5.846;2022-11-20T02:30:22;26.47;;;15.10;;
54679;SDS011;40578;53.178;5.846;2022-11-20T02:32:48;24.55;;;15.00;;
54679;SDS011;40578;53.178;5.846;2022-11-20T02:37:42;20.90;;;12.87;;
54679;SDS011;40578;53.178;5.846;2022-11-20T02:40:09;23.80;;;14.55;;
54679;SDS011;40578;53.178;5.846;2022-11-20T02:42:35;24.45;;;14.80;;
54679;SDS011;40578;53.178;5.846;2022-11-20T02:45:02;26.38;;;15.45;;
54679;SDS011;40578;53.178;5.846;2022-11-20T02:47:28;21.87;;;14.03;;
54679;SDS011;40578;53.178;5.846;2022-11-20T02:49:56;24.40;;;15.00;;
54679;SDS011;40578;53.178;5.846;2022-11-20T02:52:22;24.20;;;14.43;;
54679;SDS011;40578;53.178;5.846;2022-11-20T02:54:48;24.85;;;14.88;;
54679;SDS011;40578;53.178;5.846;2022-11-20T02:57:14;24.43;;;14.57;;
54679;SDS011;40578;53.178;5.846;2022-11-20T02:59:39;23.80;;;15.07;;
54679;SDS011;40578;53.178;5.846;2022-11-20T03:02:05;23.03;;;13.87;;
54679;SDS011;40578;53.178;5.846;2022-11-20T03:04:31;26.37;;;14.63;;
54679;SDS011;40578;53.178;5.846;2022-11-20T03:06:56;23.00;;;14.27;;
54679;SDS011;40578;53.178;5.846;2022-11-20T03:09:22;26.20;;;15.53;;
54679;SDS011;40578;53.178;5.846;2022-11-20T03:11:48;26.30;;;14.93;;
54679;SDS011;40578;53.178;5.846;2022-11-20T03:14:13;24.50;;;14.27;;
54679;SDS011;40578;53.178;5.846;2022-11-20T03:16:39;25.23;;;15.13;;
54679;SDS011;40578;53.178;5.846;2022-11-20T03:19:05;26.70;;;15.55;;
54679;SDS011;40578;53.178;5.846;2022-11-20T03:21:32;23.05;;;14.07;;
54679;SDS011;40578;53.178;5.846;2022-11-20T03:23:58;23.80;;;13.60;;
54679;SDS011;40578;53.178;5.846;2022-11-20T03:26:24;24.73;;;15.07;;
54679;SDS011;40578;53.178;5.846;2022-11-20T03:28:55;25.83;;;14.17;;
54679;SDS011;40578;53.178;5.846;2022-11-20T03:31:26;29.20;;;14.87;;
54679;SDS011;40578;53.178;5.846;2022-11-20T03:33:53;24.17;;;14.30;;
54679;SDS011;40578;53.178;5.846;2022-11-20T03:36:20;22.80;;;14.03;;
54679;SDS011;40578;53.178;5.846;2022-11-20T03:38:47;25.33;;;14.57;;
54679;SDS011;40578;53.178;5.846;2022-11-20T03:41:14;22.63;;;13.40;;
54679;SDS011;40578;53.178;5.846;2022-11-20T03:43:51;25.47;;;13.93;;
54679;SDS011;40578;53.178;5.846;2022-11-20T03:46:18;24.37;;;14.33;;
54679;SDS011;40578;53.178;5.846;2022-11-20T03:48:44;20.30;;;13.07;;
54679;SDS011;40578;53.178;5.846;2022-11-20T03:51:20;20.73;;;13.00;;
54679;SDS011;40578;53.178;5.846;2022-11-20T03:53:48;24.83;;;13.73;;
54679;SDS011;40578;53.178;5.846;2022-11-20T03:56:17;23.57;;;14.67;;
54679;SDS011;40578;53.178;5.846;2022-11-20T03:58:44;20.30;;;13.93;;
54679;SDS011;40578;53.178;5.846;2022-11-20T04:01:12;22.43;;;13.43;;
54679;SDS011;40578;53.178;5.846;2022-11-20T04:03:41;21.40;;;12.93;;
54679;SDS011;40578;53.178;5.846;2022-11-20T04:08:37;20.10;;;12.60;;
54679;SDS011;40578;53.178;5.846;2022-11-20T04:11:16;23.35;;;13.88;;
54679;SDS011;40578;53.178;5.846;2022-11-20T04:13:48;23.10;;;13.37;;
54679;SDS011;40578;53.178;5.846;2022-11-20T04:16:16;20.60;;;12.70;;
54679;SDS011;40578;53.178;5.846;2022-11-20T04:18:42;21.17;;;13.80;;
54679;SDS011;40578;53.178;5.846;2022-11-20T04:21:08;21.85;;;13.65;;
54679;SDS011;40578;53.178;5.846;2022-11-20T04:23:35;19.58;;;12.38;;
54679;SDS011;40578;53.178;5.846;2022-11-20T04:26:02;21.75;;;13.02;;
54679;SDS011;40578;53.178;5.846;2022-11-20T04:28:29;20.57;;;12.37;;
54679;SDS011;40578;53.178;5.846;2022-11-20T04:31:01;21.87;;;12.63;;
54679;SDS011;40578;53.178;5.846;2022-11-20T04:33:40;22.60;;;13.10;;
54679;SDS011;40578;53.178;5.846;2022-11-20T04:36:07;20.55;;;12.77;;
54679;SDS011;40578;53.178;5.846;2022-11-20T04:38:37;22.57;;;12.60;;
54679;SDS011;40578;53.178;5.846;2022-11-20T04:41:04;21.23;;;13.20;;
54679;SDS011;40578;53.178;5.846;2022-11-20T04:43:31;20.67;;;12.57;;
54679;SDS011;40578;53.178;5.846;2022-11-20T04:45:58;21.27;;;13.13;;
54679;SDS011;40578;53.178;5.846;2022-11-20T04:48:27;19.33;;;12.30;;
54679;SDS011;40578;53.178;5.846;2022-11-20T04:50:54;20.07;;;12.23;;
54679;SDS011;40578;53.178;5.846;2022-11-20T04:53:20;20.17;;;12.52;;
54679;SDS011;40578;53.178;5.846;2022-11-20T04:58:12;21.80;;;12.27;;
54679;SDS011;40578;53.178;5.846;2022-11-20T05:00:38;19.13;;;12.07;;
54679;SDS011;40578;53.178;5.846;2022-11-20T05:03:04;21.57;;;13.23;;
54679;SDS011;40578;53.178;5.846;2022-11-20T05:05:30;20.67;;;12.83;;
54679;SDS011;40578;53.178;5.846;2022-11-20T05:07:58;21.48;;;12.63;;
54679;SDS011;40578;53.178;5.846;2022-11-20T05:10:25;21.67;;;13.17;;
54679;SDS011;40578;53.178;5.846;2022-11-20T05:12:50;22.35;;;13.35;;
54679;SDS011;40578;53.178;5.846;2022-11-20T05:15:16;21.97;;;12.87;;
54679;SDS011;40578;53.178;5.846;2022-11-20T05:17:46;24.13;;;13.33;;
54679;SDS011;40578;53.178;5.846;2022-11-20T05:20:13;23.33;;;13.40;;
54679;SDS011;40578;53.178;5.846;2022-11-20T05:22:38;20.00;;;12.67;;
54679;SDS011;40578;53.178;5.846;2022-11-20T05:25:04;22.50;;;12.60;;
54679;SDS011;40578;53.178;5.846;2022-11-20T05:27:30;21.83;;;12.50;;
54679;SDS011;40578;53.178;5.846;2022-11-20T05:29:55;20.90;;;13.33;;
54679;SDS011;40578;53.178;5.846;2022-11-20T05:32:21;18.40;;;12.23;;
54679;SDS011;40578;53.178;5.846;2022-11-20T05:34:50;18.83;;;12.03;;
54679;SDS011;40578;53.178;5.846;2022-11-20T05:37:18;20.73;;;12.47;;
54679;SDS011;40578;53.178;5.846;2022-11-20T05:39:44;20.03;;;12.07;;
54679;SDS011;40578;53.178;5.846;2022-11-20T05:42:09;19.70;;;11.83;;
54679;SDS011;40578;53.178;5.846;2022-11-20T05:44:54;20.77;;;13.13;;
54679;SDS011;40578;53.178;5.846;2022-11-20T05:47:19;19.00;;;11.77;;
54679;SDS011;40578;53.178;5.846;2022-11-20T05:49:45;21.00;;;12.37;;
54679;SDS011;40578;53.178;5.846;2022-11-20T05:52:10;20.07;;;12.30;;
54679;SDS011;40578;53.178;5.846;2022-11-20T05:54:36;23.03;;;13.27;;
54679;SDS011;40578;53.178;5.846;2022-11-20T05:57:02;21.83;;;12.13;;
54679;SDS011;40578;53.178;5.846;2022-11-20T05:59:27;20.13;;;12.67;;
54679;SDS011;40578;53.178;5.846;2022-11-20T06:01:53;21.23;;;12.13;;
54679;SDS011;40578;53.178;5.846;2022-11-20T06:04:18;18.50;;;11.80;;
54679;SDS011;40578;53.178;5.846;2022-11-20T06:06:44;21.27;;;12.63;;
54679;SDS011;40578;53.178;5.846;2022-11-20T06:09:10;19.40;;;12.63;;
54679;SDS011;40578;53.178;5.846;2022-11-20T06:11:35;19.40;;;12.33;;
54679;SDS011;40578;53.178;5.846;2022-11-20T06:14:01;19.33;;;12.13;;
54679;SDS011;40578;53.178;5.846;2022-11-20T06:16:26;21.67;;;12.83;;
54679;SDS011;40578;53.178;5.846;2022-11-20T06:18:52;21.80;;;13.07;;
54679;SDS011;40578;53.178;5.846;2022-11-20T06:21:19;22.27;;;12.33;;
54679;SDS011;40578;53.178;5.846;2022-11-20T06:23:45;21.60;;;13.43;;
54679;SDS011;40578;53.178;5.846;2022-11-20T06:26:12;19.90;;;12.40;;
54679;SDS011;40578;53.178;5.846;2022-11-20T06:28:45;21.87;;;12.67;;
54679;SDS011;40578;53.178;5.846;2022-11-20T06:31:12;21.83;;;13.67;;
54679;SDS011;40578;53.178;5.846;2022-11-20T06:33:41;22.83;;;13.70;;
54679;SDS011;40578;53.178;5.846;2022-11-20T06:36:07;23.07;;;13.93;;
54679;SDS011;40578;53.178;5.846;2022-11-20T06:38:34;23.57;;;13.23;;
54679;SDS011;40578;53.178;5.846;2022-11-20T06:40:59;23.90;;;14.40;;
54679;SDS011;40578;53.178;5.846;2022-11-20T06:43:26;24.53;;;14.57;;
54679;SDS011;40578;53.178;5.846;2022-11-20T06:45:57;23.17;;;14.63;;
54679;SDS011;40578;53.178;5.846;2022-11-20T06:48:24;23.43;;;14.23;;
54679;SDS011;40578;53.178;5.846;2022-11-20T06:50:51;23.73;;;14.53;;
54679;SDS011;40578;53.178;5.846;2022-11-20T06:53:16;24.83;;;14.70;;
54679;SDS011;40578;53.178;5.846;2022-11-20T06:55:46;25.33;;;14.80;;
54679;SDS011;40578;53.178;5.846;2022-11-20T06:58:13;23.30;;;13.70;;
54679;SDS011;40578;53.178;5.846;2022-11-20T07:00:39;23.60;;;14.70;;
54679;SDS011;40578;53.178;5.846;2022-11-20T07:03:06;24.75;;;14.40;;
54679;SDS011;40578;53.178;5.846;2022-11-20T07:05:33;22.80;;;14.10;;
54679;SDS011;40578;53.178;5.846;2022-11-20T07:08:00;24.40;;;15.38;;
54679;SDS011;40578;53.178;5.846;2022-11-20T07:10:26;25.40;;;16.23;;
54679;SDS011;40578;53.178;5.846;2022-11-20T07:12:52;27.13;;;15.80;;
54679;SDS011;40578;53.178;5.846;2022-11-20T07:15:18;26.77;;;15.63;;
54679;SDS011;40578;53.178;5.846;2022-11-20T07:17:46;27.97;;;16.50;;
54679;SDS011;40578;53.178;5.846;2022-11-20T07:20:12;27.20;;;16.57;;
54679;SDS011;40578;53.178;5.846;2022-11-20T07:22:38;26.30;;;15.50;;
54679;SDS011;40578;53.178;5.846;2022-11-20T07:25:04;27.37;;;16.70;;
54679;SDS011;40578;53.178;5.846;2022-11-20T07:27:30;28.15;;;16.73;;
54679;SDS011;40578;53.178;5.846;2022-11-20T07:29:56;27.63;;;15.80;;
54679;SDS011;40578;53.178;5.846;2022-11-20T07:32:22;26.73;;;16.43;;
54679;SDS011;40578;53.178;5.846;2022-11-20T07:34:48;27.92;;;16.42;;
54679;SDS011;40578;53.178;5.846;2022-11-20T07:37:14;29.40;;;16.17;;
54679;SDS011;40578;53.178;5.846;2022-11-20T07:39:40;30.88;;;18.63;;
54679;SDS011;40578;53.178;5.846;2022-11-20T07:42:06;27.20;;;16.58;;
54679;SDS011;40578;53.178;5.846;2022-11-20T07:44:33;27.77;;;16.23;;
54679;SDS011;40578;53.178;5.846;2022-11-20T07:46:59;27.00;;;16.40;;
54679;SDS011;40578;53.178;5.846;2022-11-20T07:49:24;27.27;;;16.00;;
54679;SDS011;40578;53.178;5.846;2022-11-20T07:51:50;27.50;;;17.07;;
54679;SDS011;40578;53.178;5.846;2022-11-20T07:54:18;27.17;;;16.33;;
54679;SDS011;40578;53.178;5.846;2022-11-20T07:56:44;30.38;;;15.98;;
54679;SDS011;40578;53.178;5.846;2022-11-20T07:59:10;26.80;;;16.00;;
54679;SDS011;40578;53.178;5.846;2022-11-20T08:01:37;31.80;;;17.70;;
54679;SDS011;40578;53.178;5.846;2022-11-20T08:04:03;29.02;;;16.75;;
54679;SDS011;40578;53.178;5.846;2022-11-20T08:06:28;26.07;;;16.53;;
54679;SDS011;40578;53.178;5.846;2022-11-20T08:08:54;28.30;;;16.53;;
54679;SDS011;40578;53.178;5.846;2022-11-20T08:11:19;27.60;;;16.97;;
54679;SDS011;40578;53.178;5.846;2022-11-20T08:14:04;26.20;;;16.57;;
54679;SDS011;40578;53.178;5.846;2022-11-20T08:16:39;29.00;;;17.73;;
54679;SDS011;40578;53.178;5.846;2022-11-20T08:19:06;30.63;;;16.67;;
54679;SDS011;40578;53.178;5.846;2022-11-20T08:21:32;26.83;;;16.30;;
54679;SDS011;40578;53.178;5.846;2022-11-20T08:23:58;31.48;;;16.90;;
54679;SDS011;40578;53.178;5.846;2022-11-20T08:26:27;27.23;;;16.90;;
54679;SDS011;40578;53.178;5.846;2022-11-20T08:28:53;28.30;;;16.20;;
54679;SDS011;40578;53.178;5.846;2022-11-20T08:31:20;28.37;;;16.57;;
54679;SDS011;40578;53.178;5.846;2022-11-20T08:33:46;26.67;;;16.08;;
54679;SDS011;40578;53.178;5.846;2022-11-20T08:36:12;28.87;;;16.67;;
54679;SDS011;40578;53.178;5.846;2022-11-20T08:38:38;27.00;;;15.83;;
54679;SDS011;40578;53.178;5.846;2022-11-20T08:41:04;26.25;;;16.70;;
54679;SDS011;40578;53.178;5.846;2022-11-20T08:43:48;27.63;;;16.50;;
54679;SDS011;40578;53.178;5.846;2022-11-20T08:46:15;24.03;;;15.67;;
54679;SDS011;40578;53.178;5.846;2022-11-20T08:48:41;30.15;;;18.35;;
54679;SDS011;40578;53.178;5.846;2022-11-20T08:51:07;29.13;;;17.63;;
54679;SDS011;40578;53.178;5.846;2022-11-20T08:53:33;28.67;;;17.52;;
54679;SDS011;40578;53.178;5.846;2022-11-20T08:55:59;27.00;;;17.67;;
54679;SDS011;40578;53.178;5.846;2022-11-20T08:58:24;25.70;;;17.10;;
54679;SDS011;40578;53.178;5.846;2022-11-20T09:00:51;29.60;;;17.33;;
54679;SDS011;40578;53.178;5.846;2022-11-20T09:03:17;27.48;;;16.90;;
54679;SDS011;40578;53.178;5.846;2022-11-20T09:05:43;28.20;;;16.90;;
54679;SDS011;40578;53.178;5.846;2022-11-20T09:08:09;27.58;;;17.08;;
54679;SDS011;40578;53.178;5.846;2022-11-20T09:10:35;26.23;;;16.33;;
54679;SDS011;40578;53.178;5.846;2022-11-20T09:13:01;25.38;;;15.85;;
54679;SDS011;40578;53.178;5.846;2022-11-20T09:15:27;27.63;;;16.60;;
54679;SDS011;40578;53.178;5.846;2022-11-20T09:17:56;27.80;;;17.50;;
54679;SDS011;40578;53.178;5.846;2022-11-20T09:20:23;26.77;;;16.53;;
54679;SDS011;40578;53.178;5.846;2022-11-20T09:22:50;25.73;;;16.97;;
54679;SDS011;40578;53.178;5.846;2022-11-20T09:25:18;25.23;;;15.70;;
54679;SDS011;40578;53.178;5.846;2022-11-20T09:27:44;24.20;;;15.43;;
54679;SDS011;40578;53.178;5.846;2022-11-20T09:30:11;26.20;;;15.98;;
54679;SDS011;40578;53.178;5.846;2022-11-20T09:32:38;24.73;;;15.43;;
54679;SDS011;40578;53.178;5.846;2022-11-20T09:35:05;23.92;;;15.80;;
54679;SDS011;40578;53.178;5.846;2022-11-20T09:37:31;25.05;;;15.27;;
54679;SDS011;40578;53.178;5.846;2022-11-20T09:39:57;24.50;;;15.25;;
54679;SDS011;40578;53.178;5.846;2022-11-20T09:50:26;22.27;;;13.97;;
54679;SDS011;40578;53.178;5.846;2022-11-20T09:56:00;23.77;;;14.37;;
54679;SDS011;40578;53.178;5.846;2022-11-20T10:01:07;24.50;;;15.07;;
54679;SDS011;40578;53.178;5.846;2022-11-20T10:03:50;26.70;;;15.23;;
54679;SDS011;40578;53.178;5.846;2022-11-20T10:09:34;20.83;;;14.03;;
54679;SDS011;40578;53.178;5.846;2022-11-20T10:26:29;19.87;;;12.50;;
54679;SDS011;40578;53.178;5.846;2022-11-20T10:31:38;21.13;;;13.33;;
54679;SDS011;40578;53.178;5.846;2022-11-20T10:36:55;19.37;;;12.20;;
54679;SDS011;40578;53.178;5.846;2022-11-20T10:39:27;19.45;;;12.50;;
54679;SDS011;40578;53.178;5.846;2022-11-20T10:42:03;16.98;;;11.30;;
54679;SDS011;40578;53.178;5.846;2022-11-20T10:44:36;18.53;;;11.97;;
54679;SDS011;40578;53.178;5.846;2022-11-20T10:47:22;18.13;;;11.20;;
54679;SDS011;40578;53.178;5.846;2022-11-20T10:49:53;18.77;;;11.60;;
54679;SDS011;40578;53.178;5.846;2022-11-20T10:55:47;15.20;;;9.80;;
54679;SDS011;40578;53.178;5.846;2022-11-20T11:00:46;15.50;;;10.20;;
54679;SDS011;40578;53.178;5.846;2022-11-20T11:03:25;14.30;;;9.17;;
54679;SDS011;40578;53.178;5.846;2022-11-20T11:05:54;13.23;;;8.70;;
54679;SDS011;40578;53.178;5.846;2022-11-20T11:08:24;16.15;;;8.52;;
54679;SDS011;40578;53.178;5.846;2022-11-20T11:10:57;12.35;;;7.82;;
54679;SDS011;40578;53.178;5.846;2022-11-20T11:13:27;13.35;;;7.43;;
54679;SDS011;40578;53.178;5.846;2022-11-20T11:15:54;11.85;;;8.05;;
54679;SDS011;40578;53.178;5.846;2022-11-20T11:18:27;13.18;;;8.55;;
54679;SDS011;40578;53.178;5.846;2022-11-20T11:20:55;13.00;;;8.57;;
54679;SDS011;40578;53.178;5.846;2022-11-20T11:26:00;10.90;;;6.43;;
54679;SDS011;40578;53.178;5.846;2022-11-20T11:28:26;9.35;;;6.18;;
54679;SDS011;40578;53.178;5.846;2022-11-20T11:30:53;9.20;;;5.88;;
54679;SDS011;40578;53.178;5.846;2022-11-20T11:33:21;12.32;;;6.82;;
54679;SDS011;40578;53.178;5.846;2022-11-20T11:35:53;21.73;;;6.68;;
54679;SDS011;40578;53.178;5.846;2022-11-20T11:41:03;13.50;;;8.50;;
54679;SDS011;40578;53.178;5.846;2022-11-20T11:43:35;13.13;;;8.43;;
54679;SDS011;40578;53.178;5.846;2022-11-20T11:46:31;11.57;;;7.65;;
54679;SDS011;40578;53.178;5.846;2022-11-20T11:51:56;11.13;;;7.45;;
54679;SDS011;40578;53.178;5.846;2022-11-20T11:54:35;12.02;;;7.25;;
54679;SDS011;40578;53.178;5.846;2022-11-20T11:57:11;14.20;;;7.72;;
54679;SDS011;40578;53.178;5.846;2022-11-20T12:00:00;10.55;;;7.53;;
54679;SDS011;40578;53.178;5.846;2022-11-20T12:13:58;13.77;;;8.00;;
54679;SDS011;40578;53.178;5.846;2022-11-20T12:16:30;12.90;;;8.77;;
54679;SDS011;40578;53.178;5.846;2022-11-20T12:19:00;13.13;;;8.32;;
54679;SDS011;40578;53.178;5.846;2022-11-20T12:41:17;11.90;;;7.97;;
54679;SDS011;40578;53.178;5.846;2022-11-20T12:44:18;12.23;;;7.45;;
54679;SDS011;40578;53.178;5.846;2022-11-20T12:47:18;12.75;;;7.70;;
54679;SDS011;40578;53.178;5.846;2022-11-20T12:50:01;11.63;;;7.63;;
54679;SDS011;40578;53.178;5.846;2022-11-20T12:52:48;11.60;;;7.28;;
54679;SDS011;40578;53.178;5.846;2022-11-20T12:55:32;10.90;;;7.35;;
54679;SDS011;40578;53.178;5.846;2022-11-20T13:01:09;12.90;;;8.48;;
54679;SDS011;40578;53.178;5.846;2022-11-20T13:04:08;11.57;;;7.70;;
54679;SDS011;40578;53.178;5.846;2022-11-20T13:06:52;12.35;;;8.10;;
54679;SDS011;40578;53.178;5.846;2022-11-20T13:09:20;11.43;;;7.82;;
54679;SDS011;40578;53.178;5.846;2022-11-20T13:11:50;12.05;;;7.75;;
54679;SDS011;40578;53.178;5.846;2022-11-20T13:20:02;11.07;;;7.50;;
54679;SDS011;40578;53.178;5.846;2022-11-20T13:22:51;11.18;;;7.47;;
54679;SDS011;40578;53.178;5.846;2022-11-20T13:27:50;11.38;;;7.97;;
54679;SDS011;40578;53.178;5.846;2022-11-20T13:30:17;11.93;;;8.40;;
54679;SDS011;40578;53.178;5.846;2022-11-20T13:32:47;11.68;;;7.88;;
54679;SDS011;40578;53.178;5.846;2022-11-20T13:35:30;12.98;;;8.75;;
54679;SDS011;40578;53.178;5.846;2022-11-20T13:38:05;15.88;;;9.20;;
54679;SDS011;40578;53.178;5.846;2022-11-20T13:40:35;13.98;;;9.65;;
54679;SDS011;40578;53.178;5.846;2022-11-20T13:46:02;15.15;;;9.43;;
54679;SDS011;40578;53.178;5.846;2022-11-20T13:48:31;13.18;;;8.88;;
54679;SDS011;40578;53.178;5.846;2022-11-20T13:53:31;12.70;;;8.57;;
54679;SDS011;40578;53.178;5.846;2022-11-20T14:02:15;11.55;;;7.97;;
54679;SDS011;40578;53.178;5.846;2022-11-20T14:04:46;15.15;;;8.75;;
54679;SDS011;40578;53.178;5.846;2022-11-20T14:07:14;12.27;;;8.77;;
54679;SDS011;40578;53.178;5.846;2022-11-20T14:09:49;12.07;;;8.65;;
54679;SDS011;40578;53.178;5.846;2022-11-20T14:12:18;15.13;;;9.82;;
54679;SDS011;40578;53.178;5.846;2022-11-20T14:14:53;14.25;;;9.10;;
54679;SDS011;40578;53.178;5.846;2022-11-20T14:17:20;14.32;;;9.43;;
54679;SDS011;40578;53.178;5.846;2022-11-20T14:19:55;13.68;;;9.45;;
54679;SDS011;40578;53.178;5.846;2022-11-20T14:22:25;14.82;;;9.57;;
54679;SDS011;40578;53.178;5.846;2022-11-20T14:25:18;13.50;;;9.38;;
54679;SDS011;40578;53.178;5.846;2022-11-20T14:27:52;12.45;;;8.43;;
54679;SDS011;40578;53.178;5.846;2022-11-20T14:30:24;13.32;;;8.80;;
54679;SDS011;40578;53.178;5.846;2022-11-20T14:32:51;13.80;;;9.30;;
54679;SDS011;40578;53.178;5.846;2022-11-20T14:35:23;14.55;;;8.85;;
54679;SDS011;40578;53.178;5.846;2022-11-20T14:37:49;14.82;;;8.82;;
54679;SDS011;40578;53.178;5.846;2022-11-20T14:40:22;14.30;;;8.35;;
54679;SDS011;40578;53.178;5.846;2022-11-20T14:42:52;13.60;;;8.80;;
54679;SDS011;40578;53.178;5.846;2022-11-20T14:45:18;15.73;;;9.65;;
54679;SDS011;40578;53.178;5.846;2022-11-20T14:47:45;13.15;;;8.77;;
54679;SDS011;40578;53.178;5.846;2022-11-20T14:50:12;12.57;;;8.38;;
54679;SDS011;40578;53.178;5.846;2022-11-20T14:52:59;12.82;;;8.68;;
54679;SDS011;40578;53.178;5.846;2022-11-20T14:57:55;14.75;;;9.20;;
54679;SDS011;40578;53.178;5.846;2022-11-20T15:03:13;12.48;;;8.20;;
54679;SDS011;40578;53.178;5.846;2022-11-20T15:05:45;13.95;;;8.05;;
54679;SDS011;40578;53.178;5.846;2022-11-20T15:08:15;12.07;;;8.27;;
54679;SDS011;40578;53.178;5.846;2022-11-20T15:10:45;12.35;;;8.45;;
54679;SDS011;40578;53.178;5.846;2022-11-20T15:13:13;11.25;;;7.40;;
54679;SDS011;40578;53.178;5.846;2022-11-20T15:15:51;11.27;;;7.78;;
54679;SDS011;40578;53.178;5.846;2022-11-20T15:18:21;11.60;;;7.30;;
54679;SDS011;40578;53.178;5.846;2022-11-20T15:21:00;11.77;;;7.50;;
54679;SDS011;40578;53.178;5.846;2022-11-20T15:23:28;11.88;;;7.72;;
54679;SDS011;40578;53.178;5.846;2022-11-20T15:25:54;12.02;;;7.78;;
54679;SDS011;40578;53.178;5.846;2022-11-20T15:28:30;11.93;;;7.80;;
54679;SDS011;40578;53.178;5.846;2022-11-20T15:31:00;12.60;;;8.18;;
54679;SDS011;40578;53.178;5.846;2022-11-20T15:33:28;13.07;;;8.07;;
54679;SDS011;40578;53.178;5.846;2022-11-20T15:35:54;11.15;;;7.32;;
54679;SDS011;40578;53.178;5.846;2022-11-20T15:38:19;16.53;;;10.27;;
54679;SDS011;40578;53.178;5.846;2022-11-20T15:40:45;15.93;;;8.20;;
54679;SDS011;40578;53.178;5.846;2022-11-20T15:43:11;14.00;;;9.00;;
54679;SDS011;40578;53.178;5.846;2022-11-20T15:48:20;12.43;;;7.70;;
54679;SDS011;40578;53.178;5.846;2022-11-20T15:53:31;11.70;;;7.97;;
54679;SDS011;40578;53.178;5.846;2022-11-20T15:55:57;11.53;;;7.50;;
54679;SDS011;40578;53.178;5.846;2022-11-20T15:58:22;11.57;;;7.77;;
54679;SDS011;40578;53.178;5.846;2022-11-20T16:00:49;11.63;;;7.90;;
54679;SDS011;40578;53.178;5.846;2022-11-20T16:03:15;11.73;;;8.00;;
54679;SDS011;40578;53.178;5.846;2022-11-20T16:05:42;13.63;;;8.90;;
54679;SDS011;40578;53.178;5.846;2022-11-20T16:08:12;12.88;;;8.00;;
54679;SDS011;40578;53.178;5.846;2022-11-20T16:10:38;13.57;;;8.98;;
54679;SDS011;40578;53.178;5.846;2022-11-20T16:13:03;12.07;;;7.93;;
54679;SDS011;40578;53.178;5.846;2022-11-20T16:15:55;12.40;;;8.02;;
54679;SDS011;40578;53.178;5.846;2022-11-20T16:18:22;11.70;;;7.60;;
54679;SDS011;40578;53.178;5.846;2022-11-20T16:20:50;14.17;;;8.53;;
54679;SDS011;40578;53.178;5.846;2022-11-20T16:23:17;12.40;;;7.82;;
54679;SDS011;40578;53.178;5.846;2022-11-20T16:25:43;14.35;;;8.52;;
54679;SDS011;40578;53.178;5.846;2022-11-20T16:28:09;12.80;;;8.43;;
54679;SDS011;40578;53.178;5.846;2022-11-20T16:30:35;12.95;;;9.00;;
54679;SDS011;40578;53.178;5.846;2022-11-20T16:33:02;14.13;;;8.73;;
54679;SDS011;40578;53.178;5.846;2022-11-20T16:35:29;12.90;;;8.70;;
54679;SDS011;40578;53.178;5.846;2022-11-20T16:37:55;15.75;;;9.55;;
54679;SDS011;40578;53.178;5.846;2022-11-20T16:40:22;15.05;;;8.90;;
54679;SDS011;40578;53.178;5.846;2022-11-20T16:42:49;14.68;;;9.40;;
54679;SDS011;40578;53.178;5.846;2022-11-20T16:45:15;15.05;;;9.95;;